Time;durP1;ratioP1;P1;durP2;ratioP2;P2;SDS_P1;SDS_P2;PMS_P1;PMS_P2;Temp;Humidity;BMP_temperature;BMP_pressure;BME280_temperature;BME280_humidity;BME280_pressure;Samples;Min_cycle;Max_cycle;Signal;HPM_P1;HPM_P2
2024/03/26 00:01:51;;;;;;;;;;;;;;;;;;4923188;29;19954;-86
2024/03/26 00:04:17;;;;;;;;;;;;;;;;;;4937448;29;19915;-86
2024/03/26 00:06:43;;;;;;;;;;;;;;;;;;4931858;29;19919;-86
2024/03/26 00:09:09;;;;;;;;;;;;;;;;;;4934751;29;19927;-86
2024/03/26 00:11:35;;;;;;;;;;;;;;;;;;4927961;29;19961;-86
2024/03/26 00:14:00;;;;;;;;;;;;;;;;;;4917536;29;19942;-86
2024/03/26 00:16:26;;;;;;;;;;;;;;;;;;4930479;29;19917;-86
2024/03/26 00:18:52;;;;;;;;;;;;;;;;;;4929197;29;19977;-86
2024/03/26 00:21:18;;;;;;;;;;;;;;;;;;4936623;29;20323;-86
2024/03/26 00:23:44;;;;;;;;;;;;;;;;;;4944833;29;19911;-86
2024/03/26 00:26:10;;;;;;;;;;;;;;;;;;4936719;29;19938;-86
2024/03/26 00:28:36;;;;;;;;;;;;;;;;;;4936635;29;19921;-85
2024/03/26 00:31:02;;;;;;;;;;;;;;;;;;4936846;29;19956;-86
2024/03/26 00:33:28;;;;;;;;;;;;;;;;;;4929745;29;19911;-86
2024/03/26 00:35:54;;;;;;;;;;;;;;;;;;4909830;29;19911;-87
2024/03/26 00:38:20;;;;;;;;;;;;;;;;;;4924283;29;19954;-87
2024/03/26 00:40:46;;;;;;;;;;;;;;;;;;4935912;29;19981;-84
2024/03/26 00:43:12;;;;;;;;;;;;;;;;;;4930486;29;20283;-85
2024/03/26 00:45:37;;;;;;;;;;;;;;;;;;4936291;29;20403;-85
2024/03/26 00:48:03;;;;;;;;;;;;;;;;;;4917864;29;19910;-85
2024/03/26 00:50:29;;;;;;;;;;;;;;;;;;4930038;29;19915;-85
2024/03/26 00:52:55;;;;;;;;;;;;;;;;;;4930796;29;19915;-86
2024/03/26 00:55:21;;;;;;;;;;;;;;;;;;4933916;29;19967;-86
2024/03/26 00:57:49;;;;;;;;;;;;;;;;;;4933721;29;19986;-84
2024/03/26 01:00:14;;;;;;;;;;;;;;;;;;4936363;29;19919;-86
2024/03/26 01:02:40;;;;;;;;;;;;;;;;;;4936460;29;19911;-86
2024/03/26 01:05:06;;;;;;;;;;;;;;;;;;4935251;29;20338;-86
2024/03/26 01:07:32;;;;;;;;;;;;;;;;;;4922806;29;19930;-86
2024/03/26 01:09:58;;;;;;;;;;;;;;;;;;4931115;29;20049;-86
2024/03/26 01:12:24;;;;;;;;;;;;;;;;;;4934102;29;19946;-86
2024/03/26 01:14:50;;;;;;;;;;;;;;;;;;4936486;29;19925;-86
2024/03/26 01:17:16;;;;;;;;;;;;;;;;;;4936563;29;19938;-86
2024/03/26 01:19:42;;;;;;;;;;;;;;;;;;4921584;29;19930;-85
2024/03/26 01:22:08;;;;;;;;;;;;;;;;;;4910939;29;19911;-86
2024/03/26 01:24:35;;;;;;;;;;;;;;;;;;4917741;29;19927;-85
2024/03/26 01:27:01;;;;;;;;;;;;;;;;;;4917351;29;19915;-85
2024/03/26 01:29:27;;;;;;;;;;;;;;;;;;4918151;29;20328;-85
2024/03/26 01:31:53;;;;;;;;;;;;;;;;;;4918100;29;20315;-85
2024/03/26 01:34:19;;;;;;;;;;;;;;;;;;4900465;29;19911;-85
2024/03/26 01:36:45;;;;;;;;;;;;;;;;;;4921854;29;19943;-85
2024/03/26 01:39:11;;;;;;;;;;;;;;;;;;4934408;29;19943;-85
2024/03/26 01:41:37;;;;;;;;;;;;;;;;;;4910845;29;20382;-85
2024/03/26 01:44:03;;;;;;;;;;;;;;;;;;4892081;29;19958;-85
2024/03/26 01:46:29;;;;;;;;;;;;;;;;;;4910003;29;20435;-87
2024/03/26 01:48:55;;;;;;;;;;;;;;;;;;4914221;29;19915;-87
2024/03/26 01:51:20;;;;;;;;;;;;;;;;;;4908724;29;19952;-87
2024/03/26 01:53:46;;;;;;;;;;;;;;;;;;4917629;29;19911;-86
2024/03/26 01:56:12;;;;;;;;;;;;;;;;;;4919222;29;19900;-85
2024/03/26 01:58:38;;;;;;;;;;;;;;;;;;4923349;29;19907;-84
2024/03/26 02:01:04;;;;;;;;;;;;;;;;;;4934456;29;19966;-85
2024/03/26 02:03:30;;;;;;;;;;;;;;;;;;4928006;29;19935;-85
2024/03/26 02:05:56;;;;;;;;;;;;;;;;;;4933951;29;19903;-85
2024/03/26 02:08:22;;;;;;;;;;;;;;;;;;4940150;29;19919;-85
2024/03/26 02:10:48;;;;;;;;;;;;;;;;;;4938675;29;19970;-82
2024/03/26 02:13:15;;;;;;;;;;;;;;;;;;4934651;29;19957;-84
2024/03/26 02:15:41;;;;;;;;;;;;;;;;;;4937755;29;19903;-84
2024/03/26 02:18:07;;;;;;;;;;;;;;;;;;4936235;29;19958;-85
2024/03/26 02:20:33;;;;;;;;;;;;;;;;;;4932298;29;19903;-84
2024/03/26 02:22:59;;;;;;;;;;;;;;;;;;4931676;29;19937;-83
2024/03/26 02:25:24;;;;;;;;;;;;;;;;;;4931912;29;19923;-84
2024/03/26 02:27:50;;;;;;;;;;;;;;;;;;4936004;29;19982;-84
2024/03/26 02:30:16;;;;;;;;;;;;;;;;;;4939190;29;19903;-84
2024/03/26 02:32:42;;;;;;;;;;;;;;;;;;4938102;29;19903;-84
2024/03/26 02:35:08;;;;;;;;;;;;;;;;;;4938434;29;19927;-85
2024/03/26 02:37:34;;;;;;;;;;;;;;;;;;4922761;29;19970;-85
2024/03/26 02:40:00;;;;;;;;;;;;;;;;;;4925370;29;19915;-85
2024/03/26 02:42:26;;;;;;;;;;;;;;;;;;4910984;29;19949;-85
2024/03/26 02:44:52;;;;;;;;;;;;;;;;;;4906534;29;19915;-85
2024/03/26 02:47:18;;;;;;;;;;;;;;;;;;4910938;29;19911;-85
2024/03/26 02:49:44;;;;;;;;;;;;;;;;;;4916165;29;19998;-85
2024/03/26 02:52:10;;;;;;;;;;;;;;;;;;4915303;29;20012;-83
2024/03/26 02:54:36;;;;;;;;;;;;;;;;;;4916551;29;19914;-84
2024/03/26 02:57:02;;;;;;;;;;;;;;;;;;4905045;29;19918;-84
2024/03/26 02:59:28;;;;;;;;;;;;;;;;;;4915118;29;19950;-84
2024/03/26 03:01:54;;;;;;;;;;;;;;;;;;4912043;29;20398;-85
2024/03/26 03:04:20;;;;;;;;;;;;;;;;;;4912195;29;19963;-85
2024/03/26 03:06:46;;;;;;;;;;;;;;;;;;4891160;29;19915;-85
2024/03/26 03:09:12;;;;;;;;;;;;;;;;;;4914365;29;19958;-84
2024/03/26 03:11:38;;;;;;;;;;;;;;;;;;4902968;29;19921;-84
2024/03/26 03:14:04;;;;;;;;;;;;;;;;;;4904575;29;19907;-85
2024/03/26 03:16:30;;;;;;;;;;;;;;;;;;4908758;29;19907;-86
2024/03/26 03:18:56;;;;;;;;;;;;;;;;;;4925526;29;19965;-83
2024/03/26 03:21:22;;;;;;;;;;;;;;;;;;4916547;29;19921;-84
2024/03/26 03:23:48;;;;;;;;;;;;;;;;;;4917751;29;19914;-84
2024/03/26 03:26:14;;;;;;;;;;;;;;;;;;4914783;29;19911;-84
2024/03/26 03:28:40;;;;;;;;;;;;;;;;;;4933384;29;20342;-84
2024/03/26 03:31:06;;;;;;;;;;;;;;;;;;4926136;29;20302;-85
2024/03/26 03:33:32;;;;;;;;;;;;;;;;;;4926237;29;19914;-85
2024/03/26 03:35:57;;;;;;;;;;;;;;;;;;4927784;29;20461;-84
2024/03/26 03:38:23;;;;;;;;;;;;;;;;;;4927992;29;20324;-84
2024/03/26 03:40:49;;;;;;;;;;;;;;;;;;4932407;29;20371;-84
2024/03/26 03:43:16;;;;;;;;;;;;;;;;;;4928987;29;20384;-84
2024/03/26 03:45:41;;;;;;;;;;;;;;;;;;4920346;29;19946;-84
2024/03/26 03:48:08;;;;;;;;;;;;;;;;;;4917753;29;19959;-84
2024/03/26 03:50:34;;;;;;;;;;;;;;;;;;4934881;29;19910;-84
2024/03/26 03:53:00;;;;;;;;;;;;;;;;;;4922961;29;20394;-83
2024/03/26 03:55:27;;;;;;;;;;;;;;;;;;4925477;29;19968;-84
2024/03/26 03:57:53;;;;;;;;;;;;;;;;;;4929537;29;20163;-84
2024/03/26 04:00:19;;;;;;;;;;;;;;;;;;4916947;29;20311;-84
2024/03/26 04:02:45;;;;;;;;;;;;;;;;;;4932418;29;20332;-84
2024/03/26 04:05:11;;;;;;;;;;;;;;;;;;4936107;29;20315;-85
2024/03/26 04:07:37;;;;;;;;;;;;;;;;;;4934952;29;20460;-84
2024/03/26 04:10:03;;;;;;;;;;;;;;;;;;4934783;29;20393;-84
2024/03/26 04:12:28;;;;;;;;;;;;;;;;;;4925360;29;19926;-84
2024/03/26 04:14:54;;;;;;;;;;;;;;;;;;4936760;29;20430;-85
2024/03/26 04:17:20;;;;;;;;;;;;;;;;;;4929025;29;19957;-85
2024/03/26 04:19:46;;;;;;;;;;;;;;;;;;4919805;29;19962;-84
2024/03/26 04:22:12;;;;;;;;;;;;;;;;;;4899424;29;19959;-83
2024/03/26 04:24:38;;;;;;;;;;;;;;;;;;4910364;29;19919;-84
2024/03/26 04:27:04;;;;;;;;;;;;;;;;;;4912050;29;19950;-83
2024/03/26 04:29:30;;;;;;;;;;;;;;;;;;4899955;29;19950;-84
2024/03/26 04:31:56;;;;;;;;;;;;;;;;;;4904262;29;19912;-81
2024/03/26 04:34:22;;;;;;;;;;;;;;;;;;4917427;29;19910;-81
2024/03/26 04:36:48;;;;;;;;;;;;;;;;;;4896219;29;19914;-82
2024/03/26 04:39:14;;;;;;;;;;;;;;;;;;4904763;29;19989;-81
2024/03/26 04:41:39;;;;;;;;;;;;;;;;;;4912349;29;19958;-82
2024/03/26 04:44:05;;;;;;;;;;;;;;;;;;4916634;29;19954;-81
2024/03/26 04:46:32;;;;;;;;;;;;;;;;;;4912611;29;19922;-83
2024/03/26 04:48:58;;;;;;;;;;;;;;;;;;4917488;29;19915;-81
2024/03/26 04:51:24;;;;;;;;;;;;;;;;;;4890148;29;19942;-83
2024/03/26 04:53:49;;;;;;;;;;;;;;;;;;4914034;29;19968;-81
2024/03/26 04:56:15;;;;;;;;;;;;;;;;;;4914866;29;19965;-82
2024/03/26 04:58:41;;;;;;;;;;;;;;;;;;4911769;29;19954;-82
2024/03/26 05:01:07;;;;;;;;;;;;;;;;;;4898691;29;19959;-81
2024/03/26 05:03:33;;;;;;;;;;;;;;;;;;4916942;29;19950;-83
2024/03/26 05:06:00;;;;;;;;;;;;;;;;;;4916895;29;19911;-81
2024/03/26 05:08:26;;;;;;;;;;;;;;;;;;4917630;29;19943;-83
2024/03/26 05:10:52;;;;;;;;;;;;;;;;;;4907260;29;19969;-83
2024/03/26 05:13:18;;;;;;;;;;;;;;;;;;4916994;29;20324;-82
2024/03/26 05:15:44;;;;;;;;;;;;;;;;;;4893215;29;19958;-82
2024/03/26 05:18:10;;;;;;;;;;;;;;;;;;4914328;29;19914;-81
2024/03/26 05:20:36;;;;;;;;;;;;;;;;;;4929395;29;19911;-82
2024/03/26 05:23:01;;;;;;;;;;;;;;;;;;4935179;29;19979;-82
2024/03/26 05:25:27;;;;;;;;;;;;;;;;;;4928455;29;20029;-83
2024/03/26 05:27:53;;;;;;;;;;;;;;;;;;4929927;29;20366;-83
2024/03/26 05:30:19;;;;;;;;;;;;;;;;;;4932407;29;19918;-83
2024/03/26 05:32:45;;;;;;;;;;;;;;;;;;4933800;29;19957;-83
2024/03/26 05:35:11;;;;;;;;;;;;;;;;;;4925436;29;19911;-83
2024/03/26 05:37:37;;;;;;;;;;;;;;;;;;4934488;29;20347;-82
2024/03/26 05:40:03;;;;;;;;;;;;;;;;;;4927878;29;19958;-83
2024/03/26 05:42:29;;;;;;;;;;;;;;;;;;4922848;29;19962;-83
2024/03/26 05:44:55;;;;;;;;;;;;;;;;;;4935568;29;19945;-83
2024/03/26 05:47:21;;;;;;;;;;;;;;;;;;4935508;29;20375;-83
2024/03/26 05:49:47;;;;;;;;;;;;;;;;;;4918139;29;19950;-83
2024/03/26 05:52:13;;;;;;;;;;;;;;;;;;4932060;29;19939;-82
2024/03/26 05:54:39;;;;;;;;;;;;;;;;;;4922984;29;20363;-84
2024/03/26 05:57:05;;;;;;;;;;;;;;;;;;4918686;29;20372;-83
2024/03/26 05:59:35;;;;;;;;;;;;;;;;;;4926651;29;19990;-84
2024/03/26 06:02:01;;;;;;;;;;;;;;;;;;4934191;29;19918;-83
2024/03/26 06:04:27;;;;;;;;;;;;;;;;;;4924986;29;19970;-83
2024/03/26 06:06:53;;;;;;;;;;;;;;;;;;4927354;29;20294;-82
2024/03/26 06:09:19;;;;;;;;;;;;;;;;;;4934939;29;20402;-82
2024/03/26 06:11:45;;;;;;;;;;;;;;;;;;4904036;29;20402;-82
2024/03/26 06:14:11;;;;;;;;;;;;;;;;;;4928252;29;20006;-82
2024/03/26 06:16:37;;;;;;;;;;;;;;;;;;4929251;29;19954;-82
2024/03/26 06:19:03;;;;;;;;;;;;;;;;;;4926106;29;19969;-82
2024/03/26 06:21:29;;;;;;;;;;;;;;;;;;4934427;29;19989;-81
2024/03/26 06:23:55;;;;;;;;;;;;;;;;;;4929060;29;20400;-82
2024/03/26 06:26:21;;;;;;;;;;;;;;;;;;4928962;29;20264;-82
2024/03/26 06:28:47;;;;;;;;;;;;;;;;;;4931007;29;20383;-82
2024/03/26 06:31:13;;;;;;;;;;;;;;;;;;4932640;29;19958;-82
2024/03/26 06:33:39;;;;;;;;;;;;;;;;;;4934412;29;19917;-83
2024/03/26 06:36:05;;;;;;;;;;;;;;;;;;4928477;29;20290;-81
2024/03/26 06:38:31;;;;;;;;;;;;;;;;;;4933591;29;20371;-83
2024/03/26 06:40:57;;;;;;;;;;;;;;;;;;4948184;29;19911;-83
2024/03/26 06:43:23;;;;;;;;;;;;;;;;;;4950092;28;19901;-83
2024/03/26 06:45:49;;;;;;;;;;;;;;;;;;4954420;29;19914;-85
2024/03/26 06:48:15;;;;;;;;;;;;;;;;;;4957393;28;19903;-84
2024/03/26 06:50:41;;;;;;;;;;;;;;;;;;4953348;28;19910;-86
2024/03/26 06:53:07;;;;;;;;;;;;;;;;;;4955917;28;19907;-85
2024/03/26 06:55:33;;;;;;;;;;;;;;;;;;4946425;29;19974;-85
2024/03/26 06:57:59;;;;;;;;;;;;;;;;;;4922436;29;19915;-86
2024/03/26 07:00:25;;;;;;;;;;;;;;;;;;4936913;29;20017;-86
2024/03/26 07:02:57;;;;;;;;;;;;;;;;;;4936176;29;19915;-87
2024/03/26 07:05:22;;;;;;;;;;;;;;;;;;4931461;29;19914;-87
2024/03/26 07:07:49;;;;;;;;;;;;;;;;;;4931582;29;19919;-87
2024/03/26 07:10:15;;;;;;;;;;;;;;;;;;4933710;29;19911;-86
2024/03/26 07:12:40;;;;;;;;;;;;;;;;;;4925393;29;19973;-86
2024/03/26 07:15:06;;;;;;;;;;;;;;;;;;4930962;29;19954;-84
2024/03/26 07:17:32;;;;;;;;;;;;;;;;;;4934374;29;19915;-85
2024/03/26 07:19:58;;;;;;;;;;;;;;;;;;4933625;29;20005;-85
2024/03/26 07:22:24;;;;;;;;;;;;;;;;;;4934077;29;19965;-85
2024/03/26 07:24:50;;;;;;;;;;;;;;;;;;4916645;29;19969;-85
2024/03/26 07:27:16;;;;;;;;;;;;;;;;;;4927562;29;20001;-85
2024/03/26 07:29:42;;;;;;;;;;;;;;;;;;4932650;29;19956;-85
2024/03/26 07:32:08;;;;;;;;;;;;;;;;;;4931967;29;19918;-85
2024/03/26 07:34:34;;;;;;;;;;;;;;;;;;4929650;29;19938;-85
2024/03/26 07:37:00;;;;;;;;;;;;;;;;;;4931426;29;19954;-86
2024/03/26 07:39:26;;;;;;;;;;;;;;;;;;4936165;29;20272;-86
2024/03/26 07:41:52;;;;;;;;;;;;;;;;;;4928640;29;20086;-86
2024/03/26 07:44:18;;;;;;;;;;;;;;;;;;4935424;29;19933;-86
2024/03/26 07:46:47;;;;;;;;;;;;;;;;;;4924966;29;20018;-85
2024/03/26 07:49:13;;;;;;;;;;;;;;;;;;4939156;29;20009;-85
2024/03/26 07:51:39;;;;;;;;;;;;;;;;;;4932971;29;19962;-86
2024/03/26 07:54:05;;;;;;;;;;;;;;;;;;4921062;29;19911;-85
2024/03/26 07:56:31;;;;;;;;;;;;;;;;;;4919877;29;19910;-84
2024/03/26 07:58:57;;;;;;;;;;;;;;;;;;4930431;29;20487;-85
2024/03/26 08:01:24;;;;;;;;;;;;;;;;;;4935959;29;19919;-81
2024/03/26 08:03:50;;;;;;;;;;;;;;;;;;4930119;29;19915;-81
2024/03/26 08:06:16;;;;;;;;;;;;;;;;;;4931803;29;19957;-82
2024/03/26 08:08:42;;;;;;;;;;;;;;;;;;4932633;29;19998;-82
2024/03/26 08:11:09;;;;;;;;;;;;;;;;;;4914091;29;20021;-82
2024/03/26 08:13:35;;;;;;;;;;;;;;;;;;4935971;29;19911;-81
2024/03/26 08:16:01;;;;;;;;;;;;;;;;;;4932864;29;19918;-82
2024/03/26 08:18:28;;;;;;;;;;;;;;;;;;4936609;29;20414;-82
2024/03/26 08:20:54;;;;;;;;;;;;;;;;;;4933679;29;19918;-82
2024/03/26 08:23:20;;;;;;;;;;;;;;;;;;4924971;29;19950;-80
2024/03/26 08:25:46;;;;;;;;;;;;;;;;;;4935023;29;20279;-81
2024/03/26 08:28:12;;;;;;;;;;;;;;;;;;4932048;29;19915;-81
2024/03/26 08:30:37;;;;;;;;;;;;;;;;;;4931219;29;19949;-80
2024/03/26 08:33:07;;;;;;;;;;;;;;;;;;4934193;29;19939;-81
2024/03/26 08:35:33;;;;;;;;;;;;;;;;;;4936057;29;19915;-80
2024/03/26 08:38:00;;;;;;;;;;;;;;;;;;4935019;29;19966;-80
2024/03/26 08:40:25;;;;;;;;;;;;;;;;;;4915908;29;19915;-81
2024/03/26 08:42:51;;;;;;;;;;;;;;;;;;4935687;29;19921;-81
2024/03/26 08:45:17;;;;;;;;;;;;;;;;;;4932725;29;19954;-81
2024/03/26 08:47:44;;;;;;;;;;;;;;;;;;4932273;29;20426;-82
2024/03/26 08:50:10;;;;;;;;;;;;;;;;;;4934434;29;19918;-82
2024/03/26 08:52:36;;;;;;;;;;;;;;;;;;4929933;29;19957;-81
2024/03/26 08:55:03;;;;;;;;;;;;;;;;;;4934979;29;19962;-81
2024/03/26 08:57:29;;;;;;;;;;;;;;;;;;4933493;29;19918;-82
2024/03/26 08:59:55;;;;;;;;;;;;;;;;;;4935234;29;19959;-80
2024/03/26 09:02:21;;;;;;;;;;;;;;;;;;4916776;29;19911;-82
2024/03/26 09:04:47;;;;;;;;;;;;;;;;;;4932991;29;19946;-81
2024/03/26 09:07:12;;;;;;;;;;;;;;;;;;4931728;29;19960;-80
2024/03/26 09:09:38;;;;;;;;;;;;;;;;;;4932922;29;20374;-81
2024/03/26 09:12:04;;;;;;;;;;;;;;;;;;4924279;29;19969;-84
2024/03/26 09:14:30;;;;;;;;;;;;;;;;;;4936325;29;20227;-85
2024/03/26 09:16:56;;;;;;;;;;;;;;;;;;4934896;29;19965;-84
2024/03/26 09:19:22;;;;;;;;;;;;;;;;;;4932678;29;19999;-85
2024/03/26 09:21:48;;;;;;;;;;;;;;;;;;4932957;29;20568;-84
2024/03/26 09:24:14;;;;;;;;;;;;;;;;;;4933554;29;20319;-84
2024/03/26 09:26:40;;;;;;;;;;;;;;;;;;4933513;29;19910;-84
2024/03/26 09:29:06;;;;;;;;;;;;;;;;;;4937406;29;20108;-84
2024/03/26 09:31:32;;;;;;;;;;;;;;;;;;4914016;29;19922;-84
2024/03/26 09:33:58;;;;;;;;;;;;;;;;;;4936139;29;19922;-84
2024/03/26 09:36:24;;;;;;;;;;;;;;;;;;4915587;29;19965;-84
2024/03/26 09:38:50;;;;;;;;;;;;;;;;;;4939159;29;20358;-84
2024/03/26 09:41:17;;;;;;;;;;;;;;;;;;4930722;29;20338;-83
2024/03/26 09:43:43;;;;;;;;;;;;;;;;;;4923414;29;19985;-84
2024/03/26 09:46:09;;;;;;;;;;;;;;;;;;4934253;29;19949;-85
2024/03/26 09:48:35;;;;;;;;;;;;;;;;;;4931930;29;19915;-84
2024/03/26 09:51:01;;;;;;;;;;;;;;;;;;4929471;29;20047;-84
2024/03/26 09:53:27;;;;;;;;;;;;;;;;;;4930878;29;19950;-85
2024/03/26 09:55:53;;;;;;;;;;;;;;;;;;4926427;29;19961;-84
2024/03/26 09:58:19;;;;;;;;;;;;;;;;;;4933135;29;19969;-85
2024/03/26 10:00:45;;;;;;;;;;;;;;;;;;4921184;29;20405;-84
2024/03/26 10:03:11;;;;;;;;;;;;;;;;;;4920640;29;19918;-84
2024/03/26 10:05:36;;;;;;;;;;;;;;;;;;4926023;29;19911;-83
2024/03/26 10:08:02;;;;;;;;;;;;;;;;;;4923220;29;19926;-86
2024/03/26 10:10:28;;;;;;;;;;;;;;;;;;4939658;29;19923;-85
2024/03/26 10:12:55;;;;;;;;;;;;;;;;;;4944835;29;19914;-85
2024/03/26 10:15:21;;;;;;;;;;;;;;;;;;4941569;29;19929;-84
2024/03/26 10:17:47;;;;;;;;;;;;;;;;;;4947146;29;19977;-84
2024/03/26 10:20:13;;;;;;;;;;;;;;;;;;4933580;29;19926;-81
2024/03/26 10:22:39;;;;;;;;;;;;;;;;;;4928576;29;19942;-80
2024/03/26 10:25:05;;;;;;;;;;;;;;;;;;4932317;29;19962;-80
2024/03/26 10:27:31;;;;;;;;;;;;;;;;;;4933766;29;19945;-82
2024/03/26 10:29:57;;;;;;;;;;;;;;;;;;4934564;29;19911;-82
2024/03/26 10:32:23;;;;;;;;;;;;;;;;;;4931907;29;19936;-81
2024/03/26 10:34:49;;;;;;;;;;;;;;;;;;4933949;29;19997;-82
2024/03/26 10:37:14;;;;;;;;;;;;;;;;;;4932007;29;20307;-80
2024/03/26 10:39:40;;;;;;;;;;;;;;;;;;4923156;29;19915;-81
2024/03/26 10:42:06;;;;;;;;;;;;;;;;;;4940029;29;19939;-80
2024/03/26 10:44:32;;;;;;;;;;;;;;;;;;4944060;29;19911;-80
2024/03/26 10:46:58;;;;;;;;;;;;;;;;;;4939631;29;19930;-81
2024/03/26 10:49:24;;;;;;;;;;;;;;;;;;4927937;29;19911;-81
2024/03/26 10:51:50;;;;;;;;;;;;;;;;;;4939139;29;19918;-80
2024/03/26 10:54:16;;;;;;;;;;;;;;;;;;4936330;29;19910;-82
2024/03/26 10:56:42;;;;;;;;;;;;;;;;;;4944640;29;19914;-81
2024/03/26 10:59:08;;;;;;;;;;;;;;;;;;4943259;29;19939;-81
2024/03/26 11:01:34;;;;;;;;;;;;;;;;;;4942503;29;19943;-83
2024/03/26 11:04:00;;;;;;;;;;;;;;;;;;4944605;29;19915;-82
2024/03/26 11:06:26;;;;;;;;;;;;;;;;;;4928274;29;19922;-83
2024/03/26 11:08:52;;;;;;;;;;;;;;;;;;4942619;29;19911;-81
2024/03/26 11:11:18;;;;;;;;;;;;;;;;;;4940179;29;19958;-82
2024/03/26 11:13:44;;;;;;;;;;;;;;;;;;4936401;29;19926;-81
2024/03/26 11:16:10;;;;;;;;;;;;;;;;;;4936000;29;19915;-81
2024/03/26 11:18:36;;;;;;;;;;;;;;;;;;4936598;29;19914;-81
2024/03/26 11:21:02;;;;;;;;;;;;;;;;;;4919074;29;19922;-81
2024/03/26 11:23:28;;;;;;;;;;;;;;;;;;4920710;29;19945;-80
2024/03/26 11:25:54;;;;;;;;;;;;;;;;;;4937161;29;19958;-80
2024/03/26 11:28:21;;;;;;;;;;;;;;;;;;4931977;29;19918;-82
2024/03/26 11:30:47;;;;;;;;;;;;;;;;;;4938405;29;19934;-82
2024/03/26 11:33:20;;;;;;;;;;;;;;;;;;4935042;29;19957;-80
2024/03/26 11:35:46;;;;;;;;;;;;;;;;;;4942151;29;19914;-86
2024/03/26 11:38:12;;;;;;;;;;;;;;;;;;4949617;29;19989;-86
2024/03/26 11:40:38;;;;;;;;;;;;;;;;;;4950985;29;19898;-86
2024/03/26 11:43:04;;;;;;;;;;;;;;;;;;4949013;29;19910;-86
2024/03/26 11:45:30;;;;;;;;;;;;;;;;;;4945859;29;19973;-87
2024/03/26 11:47:56;;;;;;;;;;;;;;;;;;4944018;29;20426;-87
2024/03/26 11:50:22;;;;;;;;;;;;;;;;;;4941171;29;20450;-87
2024/03/26 11:52:48;;;;;;;;;;;;;;;;;;4942049;29;19925;-87
2024/03/26 11:55:14;;;;;;;;;;;;;;;;;;4938362;29;19911;-87
2024/03/26 11:57:44;;;;;;;;;;;;;;;;;;4939044;29;19974;-87
2024/03/26 12:00:10;;;;;;;;;;;;;;;;;;4939946;29;19961;-87
2024/03/26 12:02:36;;;;;;;;;;;;;;;;;;4931284;29;19911;-88
2024/03/26 12:05:02;;;;;;;;;;;;;;;;;;4935007;29;19921;-88
2024/03/26 12:07:28;;;;;;;;;;;;;;;;;;4923941;29;19921;-87
2024/03/26 12:09:53;;;;;;;;;;;;;;;;;;4923468;29;19910;-88
2024/03/26 12:12:19;;;;;;;;;;;;;;;;;;4934585;29;19939;-87
2024/03/26 12:14:45;;;;;;;;;;;;;;;;;;4931403;29;19954;-86
2024/03/26 12:17:11;;;;;;;;;;;;;;;;;;4933853;29;19910;-86
2024/03/26 12:19:37;;;;;;;;;;;;;;;;;;4915901;29;19919;-88
2024/03/26 12:22:03;;;;;;;;;;;;;;;;;;4934459;29;19915;-87
2024/03/26 12:24:29;;;;;;;;;;;;;;;;;;4937562;29;19953;-88
2024/03/26 12:26:55;;;;;;;;;;;;;;;;;;4922009;29;19973;-87
2024/03/26 12:29:21;;;;;;;;;;;;;;;;;;4918971;29;19950;-88
2024/03/26 12:31:47;;;;;;;;;;;;;;;;;;4914811;29;19942;-87
2024/03/26 12:34:13;;;;;;;;;;;;;;;;;;4937362;29;19956;-86
2024/03/26 12:36:39;;;;;;;;;;;;;;;;;;4924453;29;20002;-86
2024/03/26 12:39:05;;;;;;;;;;;;;;;;;;4933986;29;19957;-86
2024/03/26 12:41:31;;;;;;;;;;;;;;;;;;4936816;29;19922;-83
2024/03/26 12:43:57;;;;;;;;;;;;;;;;;;4942229;29;19910;-85
2024/03/26 12:46:23;;;;;;;;;;;;;;;;;;4945894;29;19922;-86
2024/03/26 12:48:48;;;;;;;;;;;;;;;;;;4952127;29;20405;-85
2024/03/26 12:51:14;;;;;;;;;;;;;;;;;;4952419;29;19911;-84
2024/03/26 12:53:40;;;;;;;;;;;;;;;;;;4949540;29;19910;-81
2024/03/26 12:56:06;;;;;;;;;;;;;;;;;;4928969;29;19934;-83
2024/03/26 12:58:32;;;;;;;;;;;;;;;;;;4929468;29;20350;-83
2024/03/26 13:00:58;;;;;;;;;;;;;;;;;;4919697;29;20378;-83
2024/03/26 13:03:24;;;;;;;;;;;;;;;;;;4936443;29;20415;-83
2024/03/26 13:05:50;;;;;;;;;;;;;;;;;;4936247;29;19911;-84
2024/03/26 13:08:16;;;;;;;;;;;;;;;;;;4936123;29;19978;-82
2024/03/26 13:10:43;;;;;;;;;;;;;;;;;;4930659;29;19918;-83
2024/03/26 13:13:09;;;;;;;;;;;;;;;;;;4919224;29;20264;-81
2024/03/26 13:15:35;;;;;;;;;;;;;;;;;;4935092;29;19919;-83
2024/03/26 13:18:01;;;;;;;;;;;;;;;;;;4918362;29;19958;-83
2024/03/26 13:20:27;;;;;;;;;;;;;;;;;;4933908;29;20035;-82
2024/03/26 13:22:53;;;;;;;;;;;;;;;;;;4936111;29;19914;-82
2024/03/26 13:25:19;;;;;;;;;;;;;;;;;;4936332;29;19919;-83
2024/03/26 13:27:45;;;;;;;;;;;;;;;;;;4936090;29;19911;-83
2024/03/26 13:30:12;;;;;;;;;;;;;;;;;;4935707;29;19958;-81
2024/03/26 13:32:38;;;;;;;;;;;;;;;;;;4935970;29;19906;-81
2024/03/26 13:35:04;;;;;;;;;;;;;;;;;;4935397;29;19917;-83
2024/03/26 13:37:30;;;;;;;;;;;;;;;;;;4935704;29;20005;-82
2024/03/26 13:39:56;;;;;;;;;;;;;;;;;;4935463;29;19954;-82
2024/03/26 13:42:22;;;;;;;;;;;;;;;;;;4935171;29;19957;-84
2024/03/26 13:44:48;;;;;;;;;;;;;;;;;;4935841;29;19911;-84
2024/03/26 13:47:14;;;;;;;;;;;;;;;;;;4929147;29;19993;-85
2024/03/26 13:49:40;;;;;;;;;;;;;;;;;;4930413;29;19950;-83
2024/03/26 13:52:06;;;;;;;;;;;;;;;;;;4927796;29;19967;-83
2024/03/26 13:54:33;;;;;;;;;;;;;;;;;;4930641;29;19967;-83
2024/03/26 13:57:00;;;;;;;;;;;;;;;;;;4924919;29;20390;-86
2024/03/26 13:59:26;;;;;;;;;;;;;;;;;;4909742;29;19969;-84
2024/03/26 14:01:52;;;;;;;;;;;;;;;;;;4929820;29;19952;-84
2024/03/26 14:04:17;;;;;;;;;;;;;;;;;;4933914;29;19953;-85
2024/03/26 14:06:43;;;;;;;;;;;;;;;;;;4925410;29;20022;-84
2024/03/26 14:09:10;;;;;;;;;;;;;;;;;;4929703;29;20001;-82
2024/03/26 14:11:35;;;;;;;;;;;;;;;;;;4920180;29;19994;-85
2024/03/26 14:14:01;;;;;;;;;;;;;;;;;;4919792;29;20471;-85
2024/03/26 14:16:28;;;;;;;;;;;;;;;;;;4915372;29;19973;-83
2024/03/26 14:18:54;;;;;;;;;;;;;;;;;;4914114;29;19934;-84
2024/03/26 14:21:20;;;;;;;;;;;;;;;;;;4915522;29;19954;-83
2024/03/26 14:23:46;;;;;;;;;;;;;;;;;;4913689;29;19954;-84
2024/03/26 14:26:12;;;;;;;;;;;;;;;;;;4910686;29;19926;-82
2024/03/26 14:28:38;;;;;;;;;;;;;;;;;;4891811;29;20430;-84
2024/03/26 14:31:04;;;;;;;;;;;;;;;;;;4908117;29;19959;-84
2024/03/26 14:33:30;;;;;;;;;;;;;;;;;;4912009;29;20014;-83
2024/03/26 14:35:56;;;;;;;;;;;;;;;;;;4912245;29;19965;-83
2024/03/26 14:38:22;;;;;;;;;;;;;;;;;;4910817;29;19974;-87
2024/03/26 14:40:48;;;;;;;;;;;;;;;;;;4910871;29;19962;-83
2024/03/26 14:43:20;;;;;;;;;;;;;;;;;;4932812;29;20326;-85
2024/03/26 14:45:46;;;;;;;;;;;;;;;;;;4925810;29;19978;-86
2024/03/26 14:48:15;;;;;;;;;;;;;;;;;;4912345;29;19915;-84
2024/03/26 14:50:41;;;;;;;;;;;;;;;;;;4929457;29;20032;-85
2024/03/26 14:53:07;;;;;;;;;;;;;;;;;;4929851;29;20035;-89
2024/03/26 14:55:33;;;;;;;;;;;;;;;;;;4910636;29;20032;-85
2024/03/26 14:57:59;;;;;;;;;;;;;;;;;;4932874;29;19937;-85
2024/03/26 15:00:25;;;;;;;;;;;;;;;;;;4930902;29;19962;-84
2024/03/26 15:02:51;;;;;;;;;;;;;;;;;;4934875;29;20143;-85
2024/03/26 15:05:18;;;;;;;;;;;;;;;;;;4930876;29;19997;-86
2024/03/26 15:07:44;;;;;;;;;;;;;;;;;;4933947;29;19911;-87
2024/03/26 15:10:09;;;;;;;;;;;;;;;;;;4932664;29;19919;-88
2024/03/26 15:12:36;;;;;;;;;;;;;;;;;;4932630;29;19954;-85
2024/03/26 15:15:02;;;;;;;;;;;;;;;;;;4933216;29;19911;-87
2024/03/26 15:17:32;;;;;;;;;;;;;;;;;;4928841;29;20021;-86
2024/03/26 15:19:58;;;;;;;;;;;;;;;;;;4927332;29;19923;-82
2024/03/26 15:22:24;;;;;;;;;;;;;;;;;;4930060;29;19985;-82
2024/03/26 15:24:50;;;;;;;;;;;;;;;;;;4928052;29;19910;-82
2024/03/26 15:32:27;;;;;;;;;;;;;;;;;;4929767;29;19914;-84
2024/03/26 15:34:52;;;;;;;;;;;;;;;;;;4909453;29;19919;-84
2024/03/26 15:37:18;;;;;;;;;;;;;;;;;;4927656;29;19911;-84
2024/03/26 15:39:44;;;;;;;;;;;;;;;;;;4914977;29;19972;-82
2024/03/26 15:42:10;;;;;;;;;;;;;;;;;;4914886;29;20064;-85
2024/03/26 15:44:36;;;;;;;;;;;;;;;;;;4930356;29;20024;-82
2024/03/26 15:47:05;;;;;;;;;;;;;;;;;;4933121;29;19959;-81
2024/03/26 15:49:31;;;;;;;;;;;;;;;;;;4934274;29;19907;-81
2024/03/26 15:51:57;;;;;;;;;;;;;;;;;;4931381;29;20363;-80
2024/03/26 15:54:23;;;;;;;;;;;;;;;;;;4946349;29;19903;-85
2024/03/26 15:56:49;;;;;;;;;;;;;;;;;;4946278;29;19962;-84
2024/03/26 15:59:15;;;;;;;;;;;;;;;;;;4950949;29;19914;-86
2024/03/26 16:01:41;;;;;;;;;;;;;;;;;;4950766;29;19922;-86
2024/03/26 16:04:07;;;;;;;;;;;;;;;;;;4950365;29;19910;-84
2024/03/26 16:06:33;;;;;;;;;;;;;;;;;;4944072;29;19914;-83
2024/03/26 16:08:59;;;;;;;;;;;;;;;;;;4953277;29;20003;-85
2024/03/26 16:11:25;;;;;;;;;;;;;;;;;;4955543;29;19899;-87
2024/03/26 16:13:51;;;;;;;;;;;;;;;;;;4936423;29;19957;-87
2024/03/26 16:16:17;;;;;;;;;;;;;;;;;;4954780;28;19955;-86
2024/03/26 16:18:43;;;;;;;;;;;;;;;;;;4955970;28;19974;-87
2024/03/26 16:21:12;;;;;;;;;;;;;;;;;;4949505;29;19973;-86
2024/03/26 16:23:38;;;;;;;;;;;;;;;;;;4943972;29;19899;-87
2024/03/26 16:26:04;;;;;;;;;;;;;;;;;;4938494;29;19914;-88
2024/03/26 16:28:30;;;;;;;;;;;;;;;;;;4941565;29;19911;-87
2024/03/26 16:30:56;;;;;;;;;;;;;;;;;;4929675;29;19963;-87
2024/03/26 16:33:22;;;;;;;;;;;;;;;;;;4938020;29;19950;-88
2024/03/26 16:35:48;;;;;;;;;;;;;;;;;;4933205;29;19915;-87
2024/03/26 16:38:14;;;;;;;;;;;;;;;;;;4940951;29;20006;-87
2024/03/26 16:40:40;;;;;;;;;;;;;;;;;;4921911;29;19918;-87
2024/03/26 16:43:06;;;;;;;;;;;;;;;;;;4940161;29;19914;-87